Ashippun, WI

12:31 AM CST on November 27, 2014 (GMT -0600)
Mapleton FS | Change Station
CLOSE
Current Station
Personal Weather Station
Location: Oconomowoc, WI
Elevation: 907 ft
Nearby Weather Stations

Elev 907 ft 43.18 °N, 88.46 °W | Updated 49 seconds ago

Mostly Cloudy
Mostly Cloudy
15.6 °F
Feels Like 8 °F
N
4.5
Wind Variable Wind from WNW
Gusts 4.5 mph

Today
High -- | Low -- °F
--% Chance of Precip.
Yesterday
High -- | Low -- °F
Precip. -- in
7:01 AM 4:21 PM
Waxing Crescent, 26% visible
Pressure 30.21 in
Visibility 5.0 miles
Clouds Scattered Clouds 5000 ft
Overcast 6500 ft
Windchill 8 °F
Dew Point 15 °F
Humidity 99%
Rainfall 0.00 in
Snow Depth Not available.
UV 0 out of 12
Pollen .10 out of 12
Air Quality Not available.
Flu Activity Not available.
METAR KRYV 270615Z AUTO 00000KT 5SM BR SCT050 OVC065 M09/M10 A3021 RMK AO2 T10951099

More Conditions Fewer Conditions

Pressure 30.21 in
Visibility 5.0 miles
Clouds Scattered Clouds 5000 ft
Overcast 6500 ft
Windchill 8 °F
Dew Point 15 °F
Humidity 99%
Rainfall 0.00 in
Snow Depth Not available.
UV 0 out of 12
Pollen .10 out of 12
Air Quality Not available.
Flu Activity Not available.
METAR KRYV 270615Z AUTO 00000KT 5SM BR SCT050 OVC065 M09/M10 A3021 RMK AO2 T10951099

More Conditions Fewer Conditions

10-Day Weather Forecast

Almanac

Astronomy

Nov. 27, 2014 Rise Set
Actual Time
Civil Twilight
Nautical Twilight
Astronomical Twilight
Moon
Length of Visible Light
Length of Day
Tomorrow will be .
, % of the Moon is Illuminated

Today's Extremes

State Highs State Lows

Community

WunderPhotos

Upload Photos

1,773,962 photos uploaded!

WunderBlogs® & News

Nearby

Air Quality

  Air Quality AQ Index Pollutant
Not available.

Snow Depth

Station Depth Elevation

Earthquake Activity

City Distance Mag. Time & Date
Minimum magnitude displayed is 2.5.

Coastal Water Temperatures

Place Temperature

Nearby Weather Stations